Festivo — EAEQ — position and weather

sailwx.info

Track history (hours):
 
Tides and Currents Weather Stations Pressure Air Temp Water Temp Dewpoint Dewpoint Depression Visibility Wind Speed Wind Dir Waves Ship Positions

Festivo

Last reported at 2015-Jul-30 08:31 UTC. Time now 2015-Aug-01 20:21 UTC.
Position N 35°54' W 005°19'.

Length 136 m; draft 4.5 m.

Type: Cargo ship. MMSI: 225410000.

Date/timePositionNaut miles runAvg speedWind from/ knotsBaromVisibWave heightAir tempDewpointWater temp
2015-Jul-30 08:31N 35°54' W 005°19'0 0.0
2015-Jul-30 07:31N 35°54' W 005°19'0 0.0
2015-Jul-30 06:31N 35°54' W 005°19'0 0.0
2015-Jul-30 05:34N 35°54' W 005°19'122 4.6
2015-Jul-29 03:12N 35°27' W 002°52'711.1
2015-Jul-29 02:33N 35°31' W 002°59'115 6.7
2015-Jul-28 09:15N 35°54' W 005°18'1 1.7
2015-Jul-28 08:33N 35°54' W 005°19'0 0.0
2015-Jul-28 07:33N 35°54' W 005°19'0 0.0
2015-Jul-28 06:33N 35°54' W 005°19'0 0.0
2015-Jul-28 05:33N 35°54' W 005°19'1 0.7
2015-Jul-28 04:34N 35°54' W 005°19'  
2015-Jul-24 13:25N 35°55' W 003°32'8 8.4
2015-Jul-24 12:30N 35°50' W 003°26'3410.9
2015-Jul-24 09:20N 35°26' W 002°56'6 0.9
2015-Jul-24 02:32N 35°31' W 002°59'  
Track history (hours):
 
Tides and Currents Weather Stations Pressure Air Temp Water Temp Dewpoint Dewpoint Depression Visibility Wind Speed Wind Dir Waves Ship Positions

Festivo

Last reported at 2015-Jul-30 08:31 UTC. Time now 2015-Aug-01 20:21 UTC.
Position N 35°54' W 005°19'.

Length 136 m; draft 4.5 m.

Type: Cargo ship. MMSI: 225410000.

Date/timePositionNaut miles runAvg speedWind from/ knotsBaromVisibWave heightAir tempDewpointWater temp
2015-Jul-30 08:31N 35°54' W 005°19'0 0.0
2015-Jul-30 07:31N 35°54' W 005°19'0 0.0
2015-Jul-30 06:31N 35°54' W 005°19'0 0.0
2015-Jul-30 05:34N 35°54' W 005°19'122 4.6
2015-Jul-29 03:12N 35°27' W 002°52'711.1
2015-Jul-29 02:33N 35°31' W 002°59'115 6.7
2015-Jul-28 09:15N 35°54' W 005°18'1 1.7
2015-Jul-28 08:33N 35°54' W 005°19'0 0.0
2015-Jul-28 07:33N 35°54' W 005°19'0 0.0
2015-Jul-28 06:33N 35°54' W 005°19'0 0.0
2015-Jul-28 05:33N 35°54' W 005°19'1 0.7
2015-Jul-28 04:34N 35°54' W 005°19'  
2015-Jul-24 13:25N 35°55' W 003°32'8 8.4
2015-Jul-24 12:30N 35°50' W 003°26'3410.9
2015-Jul-24 09:20N 35°26' W 002°56'6 0.9
2015-Jul-24 02:32N 35°31' W 002°59'  

Dump ship's entire track history